CMP237 MROC-MPTO
Flight info
| Callsign | CMP237 |
|---|---|
| Flight time | N/A |
| Altitude | 31000 |
| Route | TEJAR3M LIO UA317 BUFEO DCT BITOR VALIS1 |
| Aircraft | B738/M-SDE2E3FGHIRWXY/LB1 |
Departure
| Time | N/A |
|---|---|
| Airport | Juan Santamaría International Airport (MROC) |
Arrival
| Time | 2026-04-28 23:23 |
|---|---|
| Airport | Tocumen International Airport (MPTO) |
| Time | Latitude | Longitude | Altitude | Speed | Heading |
|---|---|---|---|---|---|
| 2026-04-28 23:23 | 9.05997 | -79.39150 | 29 ft | 0 kts | 325° |
| 2026-04-28 23:29 | 9.05991 | -79.39145 | 29 ft | 3 kts | 325° |
| 2026-04-28 23:29 | 9.05975 | -79.39135 | 29 ft | 3 kts | 325° |
| 2026-04-28 23:30 | 9.05960 | -79.39124 | 29 ft | 3 kts | 325° |
| 2026-04-28 23:30 | 9.05943 | -79.39117 | 29 ft | 3 kts | 19° |
| 2026-04-28 23:30 | 9.05930 | -79.39129 | 29 ft | 3 kts | 82° |
| 2026-04-28 23:30 | 9.05931 | -79.39141 | 29 ft | 0 kts | 118° |
| 2026-04-28 23:33 | 9.05929 | -79.39138 | 29 ft | 2 kts | 118° |
| 2026-04-28 23:33 | 9.05910 | -79.39105 | 29 ft | 7 kts | 126° |
| 2026-04-28 23:34 | 9.05862 | -79.39083 | 29 ft | 9 kts | 187° |
| 2026-04-28 23:34 | 9.05802 | -79.39106 | 29 ft | 10 kts | 206° |
| 2026-04-28 23:34 | 9.05736 | -79.39117 | 29 ft | 11 kts | 149° |
| 2026-04-28 23:34 | 9.05692 | -79.39054 | 29 ft | 12 kts | 120° |
| 2026-04-28 23:35 | 9.05659 | -79.38996 | 29 ft | 9 kts | 120° |
| 2026-04-28 23:35 | 9.05618 | -79.38957 | 29 ft | 8 kts | 180° |
| 2026-04-28 23:35 | 9.05567 | -79.38985 | 29 ft | 8 kts | 210° |
| 2026-04-28 23:35 | 9.05516 | -79.39015 | 29 ft | 9 kts | 210° |
| 2026-04-28 23:36 | 9.05453 | -79.39052 | 29 ft | 12 kts | 210° |
| 2026-04-28 23:36 | 9.05367 | -79.39100 | 29 ft | 16 kts | 210° |
| 2026-04-28 23:36 | 9.05270 | -79.39156 | 29 ft | 16 kts | 209° |
| 2026-04-28 23:36 | 9.05177 | -79.39209 | 29 ft | 15 kts | 210° |
| 2026-04-28 23:37 | 9.05087 | -79.39261 | 29 ft | 15 kts | 210° |
| 2026-04-28 23:37 | 9.05002 | -79.39312 | 29 ft | 14 kts | 209° |
| 2026-04-28 23:37 | 9.04919 | -79.39359 | 29 ft | 13 kts | 209° |
| 2026-04-28 23:37 | 9.04857 | -79.39380 | 29 ft | 9 kts | 173° |
| 2026-04-28 23:38 | 9.04810 | -79.39338 | 29 ft | 9 kts | 122° |
| 2026-04-28 23:38 | 9.04781 | -79.39281 | 30 ft | 9 kts | 114° |
| 2026-04-28 23:38 | 9.04824 | -79.39224 | 30 ft | 27 kts | 28° |
| 2026-04-28 23:38 | 9.05208 | -79.39007 | 30 ft | 99 kts | 29° |
| 2026-04-28 23:39 | 9.05998 | -79.38557 | 32 ft | 158 kts | 27° |
| 2026-04-28 23:39 | 9.07034 | -79.37944 | 408 ft | 182 kts | 27° |
| 2026-04-28 23:39 | 9.08143 | -79.37288 | 1134 ft | 188 kts | 28° |
| 2026-04-28 23:39 | 9.09282 | -79.36615 | 1780 ft | 193 kts | 26° |
| 2026-04-28 23:40 | 9.10443 | -79.35993 | 2527 ft | 188 kts | 25° |
| 2026-04-28 23:40 | 9.11598 | -79.35371 | 3228 ft | 188 kts | 27° |
| 2026-04-28 23:40 | 9.12748 | -79.34738 | 3869 ft | 191 kts | 28° |
| 2026-04-28 23:40 | 9.13939 | -79.34071 | 4382 ft | 198 kts | 28° |
| 2026-04-28 23:41 | 9.15166 | -79.33374 | 4854 ft | 207 kts | 29° |
| 2026-04-28 23:41 | 9.16450 | -79.32638 | 5346 ft | 217 kts | 29° |
| 2026-04-28 23:41 | 9.17769 | -79.31878 | 5880 ft | 226 kts | 29° |
| 2026-04-28 23:41 | 9.19167 | -79.31072 | 6401 ft | 235 kts | 30° |
| 2026-04-28 23:42 | 9.20629 | -79.30262 | 6905 ft | 244 kts | 22° |
| 2026-04-28 23:42 | 9.22337 | -79.30028 | 7400 ft | 257 kts | 352° |
| 2026-04-28 23:42 | 9.24028 | -79.30721 | 7957 ft | 272 kts | 325° |
| 2026-04-28 23:42 | 9.25296 | -79.32196 | 8491 ft | 286 kts | 300° |
| 2026-04-28 23:43 | 9.25998 | -79.34125 | 9029 ft | 299 kts | 286° |
| 2026-04-28 23:43 | 9.26435 | -79.36188 | 9587 ft | 308 kts | 282° |
| 2026-04-28 23:43 | 9.26823 | -79.38366 | 10097 ft | 318 kts | 281° |
| 2026-04-28 23:43 | 9.27214 | -79.40603 | 10588 ft | 328 kts | 282° |
| 2026-04-28 23:44 | 9.27631 | -79.42904 | 11091 ft | 336 kts | 281° |
| 2026-04-28 23:44 | 9.28064 | -79.45226 | 11585 ft | 342 kts | 282° |
| 2026-04-28 23:44 | 9.28523 | -79.47629 | 12104 ft | 349 kts | 282° |
| 2026-04-28 23:44 | 9.28998 | -79.50070 | 12621 ft | 355 kts | 282° |
| 2026-04-28 23:45 | 9.29486 | -79.52546 | 13155 ft | 361 kts | 281° |
| 2026-04-28 23:45 | 9.29983 | -79.55055 | 13684 ft | 365 kts | 281° |
| 2026-04-28 23:45 | 9.30480 | -79.57561 | 14161 ft | 369 kts | 281° |
| 2026-04-28 23:45 | 9.30992 | -79.60132 | 14638 ft | 373 kts | 281° |
| 2026-04-28 23:46 | 9.31506 | -79.62718 | 15121 ft | 376 kts | 281° |
| 2026-04-28 23:46 | 9.32026 | -79.65329 | 15614 ft | 379 kts | 281° |
| 2026-04-28 23:46 | 9.32548 | -79.67955 | 16114 ft | 382 kts | 281° |
| 2026-04-28 23:46 | 9.33075 | -79.70607 | 16625 ft | 384 kts | 281° |
| 2026-04-28 23:47 | 9.33603 | -79.73266 | 17142 ft | 386 kts | 281° |
| 2026-04-28 23:47 | 9.34133 | -79.75933 | 17668 ft | 387 kts | 281° |
| 2026-04-28 23:47 | 9.34658 | -79.78576 | 18189 ft | 388 kts | 281° |
| 2026-04-28 23:47 | 9.35191 | -79.81261 | 18650 ft | 389 kts | 281° |
| 2026-04-28 23:48 | 9.35724 | -79.83952 | 19114 ft | 390 kts | 281° |
| 2026-04-28 23:48 | 9.36113 | -79.86668 | 19565 ft | 390 kts | 269° |
| 2026-04-28 23:48 | 9.35701 | -79.89375 | 20000 ft | 389 kts | 255° |
| 2026-04-28 23:48 | 9.35059 | -79.92053 | 20397 ft | 392 kts | 255° |
| 2026-04-28 23:49 | 9.34400 | -79.94744 | 20801 ft | 395 kts | 255° |
| 2026-04-28 23:49 | 9.33738 | -79.97452 | 21209 ft | 397 kts | 254° |
| 2026-04-28 23:49 | 9.33088 | -80.00143 | 21629 ft | 399 kts | 254° |
| 2026-04-28 23:49 | 9.32434 | -80.02879 | 22042 ft | 400 kts | 255° |
| 2026-04-28 23:50 | 9.31783 | -80.05631 | 22460 ft | 402 kts | 255° |
| 2026-04-28 23:50 | 9.31133 | -80.08389 | 22894 ft | 403 kts | 255° |
| 2026-04-28 23:50 | 9.30483 | -80.11159 | 23333 ft | 404 kts | 255° |
| 2026-04-28 23:50 | 9.29841 | -80.13896 | 23716 ft | 404 kts | 255° |
| 2026-04-28 23:51 | 9.29189 | -80.16675 | 24095 ft | 405 kts | 255° |
| 2026-04-28 23:51 | 9.28537 | -80.19456 | 24467 ft | 405 kts | 255° |
| 2026-04-28 23:51 | 9.27884 | -80.22238 | 24848 ft | 405 kts | 255° |
| 2026-04-28 23:51 | 9.27231 | -80.25015 | 25230 ft | 405 kts | 255° |
| 2026-04-28 23:52 | 9.26589 | -80.27751 | 25612 ft | 405 kts | 255° |
| 2026-04-28 23:52 | 9.25936 | -80.30530 | 26007 ft | 404 kts | 255° |
| 2026-04-28 23:52 | 9.25286 | -80.33297 | 26400 ft | 404 kts | 255° |
| 2026-04-28 23:52 | 9.24635 | -80.36063 | 26808 ft | 403 kts | 255° |
| 2026-04-28 23:53 | 9.23986 | -80.38824 | 27217 ft | 402 kts | 255° |
| 2026-04-28 23:53 | 9.23338 | -80.41580 | 27630 ft | 401 kts | 255° |
| 2026-04-28 23:53 | 9.22699 | -80.44295 | 28045 ft | 400 kts | 254° |
| 2026-04-28 23:53 | 9.22055 | -80.47030 | 28474 ft | 399 kts | 254° |
| 2026-04-28 23:54 | 9.21412 | -80.49760 | 28910 ft | 397 kts | 254° |
| 2026-04-28 23:54 | 9.20771 | -80.52479 | 29347 ft | 395 kts | 254° |
| 2026-04-28 23:54 | 9.20135 | -80.55178 | 29793 ft | 394 kts | 254° |
| 2026-04-28 23:54 | 9.19499 | -80.57875 | 30200 ft | 392 kts | 254° |
| 2026-04-28 23:55 | 9.18869 | -80.60549 | 30581 ft | 389 kts | 254° |
| 2026-04-28 23:55 | 9.18249 | -80.63177 | 30956 ft | 387 kts | 253° |
| 2026-04-28 23:55 | 9.17625 | -80.65820 | 31356 ft | 385 kts | 253° |
| 2026-04-28 23:55 | 9.17004 | -80.68451 | 31752 ft | 382 kts | 253° |
| 2026-04-28 23:56 | 9.16381 | -80.71084 | 31898 ft | 387 kts | 253° |
| 2026-04-28 23:56 | 9.15743 | -80.73775 | 31918 ft | 395 kts | 253° |
| 2026-04-28 23:56 | 9.14443 | -80.79264 | 31934 ft | 410 kts | 253° |
| 2026-04-28 23:57 | 9.13111 | -80.84900 | 31921 ft | 415 kts | 253° |